Time;durP1;ratioP1;P1;durP2;ratioP2;P2;SDS_P1;SDS_P2;PMS_P1;PMS_P2;Temp;Humidity;BMP_temperature;BMP_pressure;BME280_temperature;BME280_humidity;BME280_pressure;Samples;Min_cycle;Max_cycle;Signal;HPM_P1;HPM_P2
2021/11/25 00:00:12;;;;;;;12.80;10.20;;;4.50;90.70;;;;;;4998468;28;20464;-70
2021/11/25 00:02:40;;;;;;;11.37;10.17;;;4.50;90.60;;;;;;4997098;28;20854;-70
2021/11/25 00:05:09;;;;;;;11.27;10.03;;;4.60;90.60;;;;;;4996622;28;20456;-68
2021/11/25 00:07:36;;;;;;;11.13;10.00;;;4.50;90.50;;;;;;4994565;28;20460;-68
2021/11/25 00:10:04;;;;;;;10.13;9.10;;;4.60;90.50;;;;;;4995801;28;20986;-68
2021/11/25 00:12:39;;;;;;;11.50;10.27;;;4.60;90.50;;;;;;4998436;28;20451;-68
2021/11/25 00:15:10;;;;;;;11.80;9.73;;;4.50;90.40;;;;;;5000458;28;20474;-68
2021/11/25 00:17:37;;;;;;;9.83;8.93;;;4.50;90.30;;;;;;4993799;28;20451;-68
2021/11/25 00:20:05;;;;;;;12.63;9.10;;;4.50;90.20;;;;;;4993445;28;20982;-68
2021/11/25 00:22:32;;;;;;;9.53;8.50;;;4.50;90.30;;;;;;4993793;28;20452;-68
2021/11/25 00:24:59;;;;;;;10.63;8.30;;;4.40;90.10;;;;;;4993636;28;20459;-68
2021/11/25 00:27:25;;;;;;;14.33;9.90;;;4.40;89.80;;;;;;4994599;28;20448;-68
2021/11/25 00:29:53;;;;;;;11.23;10.03;;;4.30;89.50;;;;;;4994120;28;20483;-68
2021/11/25 00:32:20;;;;;;;13.53;10.17;;;4.30;90.00;;;;;;4995725;28;20959;-68
2021/11/25 00:34:47;;;;;;;13.03;10.77;;;4.30;90.00;;;;;;4994863;28;20486;-68
2021/11/25 00:37:14;;;;;;;13.37;9.37;;;4.20;89.90;;;;;;4994830;28;20433;-68
2021/11/25 00:39:41;;;;;;;10.20;8.87;;;4.20;90.00;;;;;;4994164;28;20906;-68
2021/11/25 00:42:08;;;;;;;16.27;10.27;;;4.20;90.00;;;;;;4993456;28;20464;-68
2021/11/25 00:44:34;;;;;;;11.50;9.10;;;4.10;89.70;;;;;;4993654;28;20453;-68
2021/11/25 00:47:03;;;;;;;10.80;9.70;;;4.10;90.20;;;;;;4993961;28;20448;-68
2021/11/25 00:49:30;;;;;;;12.80;10.63;;;4.00;89.80;;;;;;4993760;28;20579;-68
2021/11/25 00:51:57;;;;;;;13.80;9.50;;;4.00;90.10;;;;;;4997047;28;20926;-68
2021/11/25 00:54:23;;;;;;;10.80;9.80;;;4.00;90.30;;;;;;4997957;28;20958;-68
2021/11/25 00:56:50;;;;;;;13.37;9.83;;;4.10;90.50;;;;;;4997232;28;20462;-68
2021/11/25 00:59:17;;;;;;;10.20;9.17;;;4.00;90.40;;;;;;4997380;28;20468;-68
2021/11/25 01:01:44;;;;;;;12.53;10.80;;;4.10;91.00;;;;;;4997246;28;20459;-68
2021/11/25 01:04:12;;;;;;;10.37;9.20;;;4.10;90.70;;;;;;4997869;28;20470;-68
2021/11/25 01:06:39;;;;;;;11.70;9.90;;;4.10;90.60;;;;;;4997112;28;20452;-68
2021/11/25 01:09:06;;;;;;;12.10;10.53;;;4.10;90.90;;;;;;4997520;28;20456;-68
2021/11/25 01:11:33;;;;;;;10.50;9.00;;;4.20;91.00;;;;;;4997210;28;20459;-68
2021/11/25 01:14:00;;;;;;;11.80;9.20;;;4.20;90.90;;;;;;4997101;28;20456;-68
2021/11/25 01:16:27;;;;;;;12.93;9.80;;;4.20;91.00;;;;;;4996685;28;20978;-68
2021/11/25 01:18:53;;;;;;;10.57;9.50;;;4.20;91.10;;;;;;5000288;28;20479;-68
2021/11/25 01:21:32;;;;;;;11.10;10.00;;;4.20;91.20;;;;;;4998472;28;20460;-68
2021/11/25 01:24:04;;;;;;;12.53;11.10;;;4.20;91.50;;;;;;5005285;28;20440;-70
2021/11/25 01:26:35;;;;;;;13.13;9.67;;;4.30;91.50;;;;;;5000144;28;20885;-70
2021/11/25 01:29:01;;;;;;;12.67;9.60;;;4.30;91.40;;;;;;4996473;28;20999;-70
2021/11/25 01:31:28;;;;;;;12.30;10.20;;;4.20;91.70;;;;;;4996696;28;20478;-70
2021/11/25 01:33:55;;;;;;;12.27;10.43;;;4.30;91.50;;;;;;4996269;28;20444;-70
2021/11/25 01:36:22;;;;;;;12.10;9.90;;;4.30;91.60;;;;;;4996345;28;20848;-70
2021/11/25 01:38:50;;;;;;;12.20;10.83;;;4.30;91.50;;;;;;4996462;28;20477;-70
2021/11/25 01:41:17;;;;;;;12.30;10.33;;;4.30;91.50;;;;;;4996466;28;20943;-70
2021/11/25 01:43:44;;;;;;;12.73;9.70;;;4.30;91.60;;;;;;4996283;28;20455;-70
2021/11/25 01:46:12;;;;;;;12.13;10.90;;;4.40;91.80;;;;;;4996080;28;20448;-70
2021/11/25 01:48:39;;;;;;;11.70;10.37;;;4.40;91.70;;;;;;4996055;28;20480;-70
2021/11/25 01:51:06;;;;;;;13.47;10.60;;;4.40;91.70;;;;;;4996618;28;20441;-70
2021/11/25 01:53:34;;;;;;;13.93;9.30;;;4.40;91.60;;;;;;4996364;28;20935;-70
2021/11/25 01:56:04;;;;;;;14.33;10.83;;;4.40;91.40;;;;;;4996480;28;20495;-70
2021/11/25 01:58:31;;;;;;;15.50;13.87;;;4.40;91.60;;;;;;4996960;28;20464;-70
2021/11/25 02:00:58;;;;;;;13.77;11.03;;;4.50;91.90;;;;;;4996275;28;20448;-70
2021/11/25 02:03:27;;;;;;;14.60;10.90;;;4.50;91.80;;;;;;4996120;28;20456;-71
2021/11/25 02:05:54;;;;;;;12.40;11.10;;;4.50;91.70;;;;;;4996431;28;20457;-71
2021/11/25 02:08:21;;;;;;;13.43;11.23;;;4.40;91.70;;;;;;4996235;28;20471;-70
2021/11/25 02:10:52;;;;;;;15.07;11.70;;;4.40;91.80;;;;;;4996866;28;20826;-70
2021/11/25 02:13:20;;;;;;;14.60;10.40;;;4.40;92.00;;;;;;4996756;28;20929;-70
2021/11/25 02:15:49;;;;;;;11.47;10.30;;;4.50;92.10;;;;;;4997247;28;20852;-70
2021/11/25 02:18:18;;;;;;;14.53;11.10;;;4.50;92.20;;;;;;4996489;28;20909;-70
2021/11/25 02:20:48;;;;;;;11.97;10.77;;;4.50;92.30;;;;;;4995651;28;20824;-70
2021/11/25 02:23:17;;;;;;;13.57;12.17;;;4.50;92.40;;;;;;4995609;28;20432;-70
2021/11/25 02:25:44;;;;;;;13.30;10.93;;;4.50;92.60;;;;;;4998830;28;20448;-70
2021/11/25 02:28:11;;;;;;;13.03;11.83;;;4.50;92.70;;;;;;4995349;28;20476;-70
2021/11/25 02:30:38;;;;;;;13.10;10.97;;;4.60;92.80;;;;;;4995596;28;20829;-70
2021/11/25 02:33:05;;;;;;;12.90;11.00;;;4.60;92.80;;;;;;4995271;28;20512;-70
2021/11/25 02:35:34;;;;;;;13.10;11.73;;;4.60;92.60;;;;;;4995110;28;20918;-70
2021/11/25 02:38:03;;;;;;;11.30;9.90;;;4.60;92.60;;;;;;4995160;28;20464;-70
2021/11/25 02:40:33;;;;;;;12.13;10.80;;;4.60;92.60;;;;;;4995107;28;20437;-70
2021/11/25 02:43:02;;;;;;;11.80;10.07;;;4.60;92.70;;;;;;4995096;28;20503;-70
2021/11/25 02:45:31;;;;;;;12.83;10.03;;;4.70;92.70;;;;;;4994959;28;20444;-70
2021/11/25 02:47:59;;;;;;;11.10;10.00;;;4.70;92.60;;;;;;4994869;28;20961;-70
2021/11/25 02:50:26;;;;;;;12.07;10.73;;;4.70;92.50;;;;;;4995712;28;20455;-70
2021/11/25 02:52:54;;;;;;;11.67;10.33;;;4.70;92.30;;;;;;4994935;28;20566;-70
2021/11/25 02:55:22;;;;;;;12.63;11.30;;;4.70;92.30;;;;;;4995381;28;20540;-70
2021/11/25 02:57:49;;;;;;;11.60;10.37;;;4.70;92.30;;;;;;4994633;28;20507;-70
2021/11/25 03:00:31;;;;;;;12.23;10.83;;;4.70;92.20;;;;;;4994415;28;20550;-70
2021/11/25 03:02:59;;;;;;;12.33;10.77;;;4.70;92.20;;;;;;4994876;28;20437;-70
2021/11/25 03:05:28;;;;;;;13.60;10.57;;;4.70;92.30;;;;;;4994619;28;20943;-70
2021/11/25 03:07:55;;;;;;;12.30;11.00;;;4.70;92.50;;;;;;4994295;28;20456;-70
2021/11/25 03:10:24;;;;;;;12.33;10.17;;;4.80;92.60;;;;;;4994421;28;20813;-70
2021/11/25 03:12:50;;;;;;;14.97;12.57;;;4.70;92.60;;;;;;4995221;28;20448;-70
2021/11/25 03:15:17;;;;;;;14.33;12.03;;;4.80;92.60;;;;;;4993834;28;20487;-70
2021/11/25 03:17:44;;;;;;;12.77;11.37;;;4.80;92.60;;;;;;4994443;28;20460;-71
2021/11/25 03:20:13;;;;;;;14.50;12.27;;;4.70;92.50;;;;;;4994048;28;20470;-70
2021/11/25 03:22:39;;;;;;;15.30;12.93;;;4.70;92.60;;;;;;4994974;28;20452;-70
2021/11/25 03:25:07;;;;;;;13.67;12.20;;;4.80;92.80;;;;;;4994292;28;20452;-70
2021/11/25 03:27:36;;;;;;;14.50;12.90;;;4.80;92.90;;;;;;4993919;28;20507;-70
2021/11/25 03:30:03;;;;;;;17.57;13.10;;;4.80;93.00;;;;;;4994188;28;20468;-70
2021/11/25 03:32:30;;;;;;;18.03;14.77;;;4.80;93.00;;;;;;4994672;28;20452;-70
2021/11/25 03:34:56;;;;;;;14.10;12.60;;;4.80;93.00;;;;;;4994115;28;20445;-70
2021/11/25 03:37:23;;;;;;;15.33;12.83;;;4.70;93.00;;;;;;4994077;28;20475;-70
2021/11/25 03:39:50;;;;;;;18.50;12.83;;;4.80;93.10;;;;;;4994207;28;20490;-70
2021/11/25 03:42:17;;;;;;;14.50;12.70;;;4.80;93.00;;;;;;4996954;28;20470;-70
2021/11/25 03:44:46;;;;;;;18.10;14.80;;;4.70;93.00;;;;;;4994383;28;20459;-70
2021/11/25 03:47:13;;;;;;;17.73;15.00;;;4.80;93.20;;;;;;4993725;28;20811;-70
2021/11/25 03:49:41;;;;;;;17.30;13.63;;;4.70;93.30;;;;;;4993918;28;20483;-70
2021/11/25 03:52:08;;;;;;;21.43;14.90;;;4.80;93.40;;;;;;4993993;28;20436;-70
2021/11/25 03:54:35;;;;;;;16.87;14.53;;;4.80;93.40;;;;;;4993847;28;20459;-70
2021/11/25 03:57:02;;;;;;;18.07;13.90;;;4.80;93.30;;;;;;4993886;28;20485;-70
2021/11/25 03:59:29;;;;;;;18.60;13.70;;;4.80;93.30;;;;;;4994634;28;20464;-70
2021/11/25 04:01:57;;;;;;;18.80;14.20;;;4.80;93.40;;;;;;4994206;28;20455;-70
2021/11/25 04:04:24;;;;;;;17.63;14.20;;;4.80;93.30;;;;;;4993799;28;20452;-70
2021/11/25 04:06:50;;;;;;;24.10;18.60;;;4.80;93.40;;;;;;4994018;28;20479;-70
2021/11/25 04:09:17;;;;;;;21.00;15.50;;;4.70;93.30;;;;;;4993752;28;20470;-70
2021/11/25 04:11:44;;;;;;;14.80;13.20;;;4.80;93.40;;;;;;4993556;28;20902;-70
2021/11/25 04:14:11;;;;;;;24.27;15.50;;;4.80;93.30;;;;;;4993929;28;20455;-70
2021/11/25 04:16:38;;;;;;;19.07;14.80;;;4.80;93.20;;;;;;4993707;28;20480;-70
2021/11/25 04:19:06;;;;;;;16.83;14.97;;;4.80;93.20;;;;;;4993749;28;20471;-69
2021/11/25 04:21:33;;;;;;;17.67;14.93;;;4.80;93.10;;;;;;4994411;28;20439;-70
2021/11/25 04:24:00;;;;;;;19.00;15.40;;;4.80;93.00;;;;;;4993474;28;20942;-68
2021/11/25 04:26:27;;;;;;;19.60;17.00;;;4.80;93.20;;;;;;4996798;28;20813;-68
2021/11/25 04:28:53;;;;;;;18.93;15.73;;;4.90;93.30;;;;;;4997319;28;20583;-69
2021/11/25 04:36:51;;;;;;;18.30;15.77;;;4.90;93.20;;;;;;4997521;28;20518;-69
2021/11/25 04:39:18;;;;;;;19.57;16.47;;;4.90;93.20;;;;;;4997113;28;20862;-68
2021/11/25 04:41:45;;;;;;;19.57;15.50;;;4.80;93.10;;;;;;4997301;28;20543;-68
2021/11/25 04:44:12;;;;;;;23.00;16.77;;;4.80;93.20;;;;;;4997431;28;20436;-68
2021/11/25 04:46:39;;;;;;;18.67;16.67;;;4.80;93.30;;;;;;4997363;28;20487;-69
2021/11/25 04:49:07;;;;;;;20.27;15.40;;;4.90;93.40;;;;;;4997563;28;20468;-68
2021/11/25 04:51:34;;;;;;;20.77;16.93;;;4.90;93.40;;;;;;4997299;28;20466;-68
2021/11/25 04:54:01;;;;;;;24.87;18.90;;;4.80;93.30;;;;;;4997301;28;20444;-68
2021/11/25 04:56:28;;;;;;;27.47;18.83;;;4.80;93.40;;;;;;4997214;28;20472;-69
2021/11/25 04:58:55;;;;;;;25.07;19.23;;;4.80;93.50;;;;;;4996802;28;20474;-69
2021/11/25 05:01:21;;;;;;;26.50;19.10;;;4.80;93.40;;;;;;4997392;28;20450;-69
2021/11/25 05:03:48;;;;;;;28.67;20.73;;;4.80;93.40;;;;;;4997055;28;20451;-69
2021/11/25 05:06:16;;;;;;;29.60;20.17;;;4.90;93.30;;;;;;4997048;28;20452;-69
2021/11/25 05:08:44;;;;;;;27.23;17.80;;;4.90;93.20;;;;;;4997056;28;20474;-68
2021/11/25 05:11:10;;;;;;;29.13;19.23;;;4.90;93.20;;;;;;4996981;28;20455;-68
2021/11/25 05:13:37;;;;;;;23.50;18.80;;;4.90;93.10;;;;;;4996896;28;20448;-69
2021/11/25 05:16:05;;;;;;;21.40;17.63;;;4.90;93.10;;;;;;4996712;28;20491;-69
2021/11/25 05:18:31;;;;;;;25.87;18.40;;;4.90;93.20;;;;;;4996772;28;20467;-69
2021/11/25 05:20:58;;;;;;;25.20;17.87;;;5.00;93.30;;;;;;4996450;28;20460;-69
2021/11/25 05:23:27;;;;;;;27.87;16.97;;;5.00;93.30;;;;;;4996664;28;20814;-69
2021/11/25 05:25:54;;;;;;;23.17;16.67;;;5.00;93.30;;;;;;4996637;28;20460;-69
2021/11/25 05:28:21;;;;;;;24.60;16.07;;;5.00;93.20;;;;;;4997017;28;20475;-68
2021/11/25 05:30:48;;;;;;;20.47;15.60;;;5.00;93.40;;;;;;4996797;28;20456;-68
2021/11/25 05:33:16;;;;;;;21.00;17.30;;;5.00;93.40;;;;;;4996799;28;20459;-68
2021/11/25 05:35:43;;;;;;;27.43;19.50;;;4.90;93.40;;;;;;4996275;28;20464;-68
2021/11/25 05:38:11;;;;;;;27.53;19.97;;;4.90;93.30;;;;;;4995480;28;20474;-68
2021/11/25 05:40:39;;;;;;;28.00;19.27;;;5.00;93.30;;;;;;4996420;28;20451;-68
2021/11/25 05:43:05;;;;;;;26.80;18.20;;;5.00;93.40;;;;;;4996240;28;20976;-68
2021/11/25 05:45:33;;;;;;;27.30;19.33;;;5.00;93.40;;;;;;4996571;28;20448;-68
2021/11/25 05:48:00;;;;;;;34.80;20.33;;;5.00;93.30;;;;;;4996556;28;20448;-68
2021/11/25 05:50:27;;;;;;;41.40;20.30;;;4.90;93.20;;;;;;4996512;28;20963;-70
2021/11/25 05:52:57;;;;;;;34.83;19.37;;;4.90;93.10;;;;;;4996012;28;20453;-70
2021/11/25 05:55:27;;;;;;;30.50;20.47;;;4.80;93.10;;;;;;4996428;28;20447;-70
2021/11/25 05:57:55;;;;;;;33.33;19.20;;;4.80;93.10;;;;;;4996145;28;20491;-70
2021/11/25 06:00:22;;;;;;;37.67;19.47;;;4.70;93.20;;;;;;4996041;28;20445;-70
2021/11/25 06:02:49;;;;;;;38.47;20.70;;;4.70;93.20;;;;;;4996236;28;20436;-71
2021/11/25 06:05:20;;;;;;;27.83;20.03;;;4.70;93.10;;;;;;4995989;28;20503;-70
2021/11/25 06:07:47;;;;;;;32.17;18.40;;;4.60;93.20;;;;;;4995893;28;20429;-69
2021/11/25 06:10:15;;;;;;;34.03;21.10;;;4.50;93.20;;;;;;4996056;28;20954;-69
2021/11/25 06:12:42;;;;;;;36.30;20.20;;;4.50;93.20;;;;;;4995483;28;20448;-69
2021/11/25 06:15:11;;;;;;;40.83;21.27;;;4.50;93.10;;;;;;4995573;28;20443;-70
2021/11/25 06:17:38;;;;;;;38.30;22.07;;;4.50;93.10;;;;;;4995383;28;20490;-70
2021/11/25 06:20:10;;;;;;;29.30;19.90;;;4.40;93.40;;;;;;4995741;28;20833;-70
2021/11/25 06:22:38;;;;;;;35.27;20.10;;;4.50;93.00;;;;;;4995449;28;20985;-70
2021/11/25 06:25:05;;;;;;;31.00;20.00;;;4.40;93.00;;;;;;4995697;28;20444;-70
2021/11/25 06:27:32;;;;;;;27.53;19.67;;;4.40;92.90;;;;;;4995396;28;20934;-70
2021/11/25 06:29:59;;;;;;;27.30;20.37;;;4.40;92.90;;;;;;4995454;28;20473;-70
2021/11/25 06:32:27;;;;;;;30.90;20.80;;;4.40;92.90;;;;;;4995473;28;20448;-70
2021/11/25 06:34:54;;;;;;;32.87;20.93;;;4.40;92.70;;;;;;4995378;28;20456;-70
2021/11/25 06:37:20;;;;;;;30.60;19.20;;;4.30;92.80;;;;;;4994978;28;20480;-70
2021/11/25 06:39:47;;;;;;;30.03;20.30;;;4.30;92.80;;;;;;4995384;28;20519;-69
2021/11/25 06:42:14;;;;;;;22.60;18.73;;;4.30;92.80;;;;;;4995333;28;20429;-70
2021/11/25 06:44:41;;;;;;;24.83;20.10;;;4.30;92.80;;;;;;4995236;28;20444;-70
2021/11/25 06:47:07;;;;;;;27.07;19.60;;;4.30;92.70;;;;;;4994957;28;20453;-70
2021/11/25 06:49:36;;;;;;;25.50;19.30;;;4.30;92.30;;;;;;4994099;28;20480;-70
2021/11/25 06:52:03;;;;;;;23.07;18.27;;;4.30;92.10;;;;;;4994870;28;21050;-70
2021/11/25 06:54:30;;;;;;;31.23;20.37;;;4.30;91.90;;;;;;4995132;28;20475;-70
2021/11/25 06:56:56;;;;;;;23.17;19.00;;;4.20;91.80;;;;;;4995079;28;20475;-70
2021/11/25 06:59:24;;;;;;;29.40;19.93;;;4.20;91.70;;;;;;4995028;28;20476;-69
2021/11/25 07:01:51;;;;;;;23.90;18.90;;;4.10;91.60;;;;;;4995423;28;20437;-69
2021/11/25 07:04:18;;;;;;;22.47;17.83;;;4.10;91.60;;;;;;4994738;28;20432;-69
2021/11/25 07:06:46;;;;;;;25.07;18.00;;;4.10;91.70;;;;;;4995013;28;20456;-69
2021/11/25 07:09:13;;;;;;;23.20;18.00;;;4.00;91.60;;;;;;4994665;28;20498;-70
2021/11/25 07:11:39;;;;;;;21.40;16.33;;;4.00;91.70;;;;;;4994726;28;20459;-70
2021/11/25 07:14:08;;;;;;;27.03;18.20;;;4.00;91.70;;;;;;4997596;28;20444;-69
2021/11/25 07:16:35;;;;;;;29.23;17.70;;;4.00;91.70;;;;;;4998566;28;20494;-69
2021/11/25 07:19:02;;;;;;;29.67;17.73;;;4.00;91.80;;;;;;4998576;28;20476;-70
2021/11/25 07:21:29;;;;;;;22.83;17.80;;;4.00;91.90;;;;;;4998892;28;20826;-70
2021/11/25 07:23:57;;;;;;;24.30;19.33;;;4.00;92.00;;;;;;4998775;28;20436;-69
2021/11/25 07:26:24;;;;;;;26.23;17.50;;;3.90;91.90;;;;;;4999034;28;20447;-69
2021/11/25 07:28:51;;;;;;;29.33;20.07;;;4.00;92.00;;;;;;4998227;28;20470;-69
2021/11/25 07:31:17;;;;;;;32.80;19.10;;;3.90;92.00;;;;;;4997829;28;20437;-70
2021/11/25 07:33:44;;;;;;;31.77;17.60;;;4.00;92.00;;;;;;4997814;28;20448;-70
2021/11/25 07:36:13;;;;;;;30.20;18.57;;;3.90;92.00;;;;;;4997768;28;20447;-70
2021/11/25 07:38:40;;;;;;;34.97;20.00;;;4.00;92.00;;;;;;4997451;28;20476;-69
2021/11/25 07:41:08;;;;;;;26.13;18.83;;;4.00;92.30;;;;;;4997687;28;20455;-69
2021/11/25 07:43:34;;;;;;;29.47;17.40;;;4.00;92.10;;;;;;4997863;28;20451;-69
2021/11/25 07:46:02;;;;;;;25.03;16.10;;;4.10;92.00;;;;;;4997928;28;20433;-69
2021/11/25 07:48:29;;;;;;;33.93;20.53;;;4.10;91.90;;;;;;4997566;28;20523;-69
2021/11/25 07:50:56;;;;;;;27.60;17.90;;;4.10;91.60;;;;;;4996820;28;20456;-69
2021/11/25 07:53:23;;;;;;;29.77;16.10;;;4.10;91.40;;;;;;4996647;28;20951;-69
2021/11/25 07:55:50;;;;;;;27.83;18.47;;;4.00;91.20;;;;;;4996764;28;20448;-69
2021/11/25 07:58:18;;;;;;;25.27;17.77;;;4.00;91.10;;;;;;4996361;28;20491;-69
2021/11/25 08:00:45;;;;;;;26.83;17.17;;;4.00;91.20;;;;;;4996497;28;20459;-69
2021/11/25 08:03:12;;;;;;;35.80;18.27;;;4.00;91.20;;;;;;4996582;28;20457;-69
2021/11/25 08:05:39;;;;;;;28.03;18.30;;;4.00;91.20;;;;;;4995789;28;20460;-69
2021/11/25 08:08:08;;;;;;;30.10;18.50;;;4.00;91.30;;;;;;4995705;28;20475;-69
2021/11/25 08:10:35;;;;;;;27.30;20.47;;;4.00;91.50;;;;;;4995353;28;20998;-69
2021/11/25 08:13:04;;;;;;;30.17;19.30;;;4.00;91.70;;;;;;4995043;28;20451;-69
2021/11/25 08:15:32;;;;;;;27.03;18.33;;;4.10;91.90;;;;;;4995227;28;20454;-69
2021/11/25 08:17:59;;;;;;;32.80;21.23;;;4.10;92.00;;;;;;4994941;28;20852;-69
2021/11/25 08:20:26;;;;;;;26.13;18.50;;;4.10;92.00;;;;;;4995103;28;20464;-69
2021/11/25 08:22:53;;;;;;;26.53;19.50;;;4.20;91.80;;;;;;4995540;28;20444;-70
2021/11/25 08:25:23;;;;;;;30.37;18.63;;;4.10;91.60;;;;;;4995293;28;20457;-70
2021/11/25 08:27:52;;;;;;;31.60;20.40;;;4.20;91.70;;;;;;4994960;28;20464;-69
2021/11/25 08:30:19;;;;;;;27.50;20.63;;;4.20;91.80;;;;;;4995511;28;20460;-69
2021/11/25 08:32:47;;;;;;;31.97;19.57;;;4.20;91.90;;;;;;4995664;28;20535;-69
2021/11/25 08:35:15;;;;;;;30.23;20.43;;;4.20;91.90;;;;;;4995892;28;20452;-69
2021/11/25 08:37:42;;;;;;;32.27;22.90;;;4.20;91.90;;;;;;4995659;28;20526;-70
2021/11/25 08:40:12;;;;;;;32.10;20.90;;;4.20;91.70;;;;;;4995577;28;20476;-69
2021/11/25 08:42:39;;;;;;;38.53;22.63;;;4.30;91.80;;;;;;4996336;28;20463;-69
2021/11/25 08:45:08;;;;;;;28.20;22.40;;;4.30;91.90;;;;;;4995636;28;20929;-69
2021/11/25 08:47:35;;;;;;;27.63;20.77;;;4.40;92.00;;;;;;4995998;28;20455;-70
2021/11/25 08:50:03;;;;;;;30.80;22.80;;;4.50;92.10;;;;;;4995499;28;20472;-69
2021/11/25 08:52:30;;;;;;;29.43;22.83;;;4.50;92.20;;;;;;4995606;28;20452;-69
2021/11/25 08:54:57;;;;;;;30.67;22.30;;;4.60;92.10;;;;;;4994769;28;20448;-69
2021/11/25 08:57:24;;;;;;;30.10;23.60;;;4.80;92.10;;;;;;4994251;28;20488;-70
2021/11/25 08:59:51;;;;;;;29.23;24.80;;;4.80;91.80;;;;;;4993919;28;20487;-70
2021/11/25 09:02:18;;;;;;;35.83;26.00;;;4.90;91.70;;;;;;4993891;28;20452;-70
2021/11/25 09:04:45;;;;;;;33.33;26.20;;;5.00;91.90;;;;;;4993407;28;20471;-69
2021/11/25 09:07:14;;;;;;;36.23;28.20;;;5.10;91.90;;;;;;4993498;28;20448;-70
2021/11/25 09:09:40;;;;;;;36.23;27.33;;;5.20;91.70;;;;;;4993085;28;20468;-69
2021/11/25 09:12:08;;;;;;;38.50;30.67;;;5.10;91.60;;;;;;4994627;28;20432;-69
2021/11/25 09:14:34;;;;;;;39.23;30.10;;;5.00;91.70;;;;;;4997020;28;20502;-69
2021/11/25 09:17:01;;;;;;;38.37;30.83;;;5.10;92.10;;;;;;4996507;28;20476;-69
2021/11/25 09:19:28;;;;;;;35.10;29.90;;;5.10;92.20;;;;;;4996713;28;20502;-69
2021/11/25 09:21:56;;;;;;;34.87;29.30;;;5.30;92.30;;;;;;4996785;28;20475;-69
2021/11/25 09:24:24;;;;;;;36.73;28.60;;;5.30;92.20;;;;;;4996768;28;20457;-69
2021/11/25 09:26:51;;;;;;;37.87;27.13;;;5.50;92.20;;;;;;4996343;28;20464;-69
2021/11/25 09:29:20;;;;;;;40.37;30.77;;;5.50;92.10;;;;;;4996463;28;20463;-69
2021/11/25 09:31:47;;;;;;;35.93;27.53;;;5.60;92.00;;;;;;4996730;28;20556;-70
2021/11/25 09:34:14;;;;;;;37.40;28.83;;;5.60;91.80;;;;;;4996663;28;20439;-69
2021/11/25 09:36:41;;;;;;;41.60;29.97;;;5.60;91.60;;;;;;4996829;28;20440;-69
2021/11/25 09:39:09;;;;;;;39.77;30.23;;;5.60;91.70;;;;;;4996446;28;20483;-69
2021/11/25 09:41:38;;;;;;;40.23;30.47;;;5.50;91.60;;;;;;4996597;28;20453;-69
2021/11/25 09:44:07;;;;;;;40.50;29.30;;;5.40;91.80;;;;;;4996438;28;20452;-70
2021/11/25 09:46:35;;;;;;;41.20;30.03;;;5.40;92.00;;;;;;4996255;28;20448;-70
2021/11/25 09:49:02;;;;;;;35.10;27.50;;;5.40;92.20;;;;;;4996005;28;20479;-69
2021/11/25 09:51:29;;;;;;;33.57;28.20;;;5.40;92.30;;;;;;4996577;28;20451;-69
2021/11/25 09:53:56;;;;;;;34.97;27.67;;;5.40;92.30;;;;;;4996295;28;20958;-70
2021/11/25 09:56:23;;;;;;;36.93;28.17;;;5.50;92.40;;;;;;4996060;28;20439;-70
2021/11/25 09:58:53;;;;;;;31.40;25.17;;;5.50;92.40;;;;;;4996187;28;20499;-70
2021/11/25 10:01:22;;;;;;;32.07;25.77;;;5.60;92.40;;;;;;4996128;28;20630;-70
2021/11/25 10:03:53;;;;;;;41.90;26.30;;;5.60;92.40;;;;;;4996105;28;20453;-70
2021/11/25 10:06:22;;;;;;;33.53;25.77;;;5.70;92.50;;;;;;4996049;28;20954;-70
2021/11/25 10:08:52;;;;;;;34.23;25.63;;;5.70;92.50;;;;;;4995964;28;20834;-69
2021/11/25 10:11:21;;;;;;;35.63;24.80;;;5.80;92.50;;;;;;4995937;28;20838;-69
2021/11/25 10:13:55;;;;;;;33.20;23.50;;;5.90;92.50;;;;;;4995921;28;20439;-69
2021/11/25 10:16:25;;;;;;;34.70;24.40;;;5.90;92.30;;;;;;4996036;28;20443;-69
2021/11/25 10:18:52;;;;;;;29.07;24.40;;;6.00;92.30;;;;;;4995691;28;20526;-69
2021/11/25 10:21:20;;;;;;;32.67;23.83;;;6.10;92.20;;;;;;4995631;28;20468;-70
2021/11/25 10:23:49;;;;;;;32.40;23.90;;;6.20;92.00;;;;;;4995417;28;20444;-70
2021/11/25 10:26:18;;;;;;;29.80;24.20;;;6.20;92.00;;;;;;4995704;28;20459;-70
2021/11/25 10:28:47;;;;;;;30.60;24.70;;;6.20;91.70;;;;;;4995622;28;20468;-69
2021/11/25 10:31:19;;;;;;;32.80;25.03;;;6.20;91.70;;;;;;4995766;28;20475;-70
2021/11/25 10:33:51;;;;;;;35.53;23.90;;;6.10;91.70;;;;;;4995719;28;20432;-70
2021/11/25 10:36:31;;;;;;;30.00;23.53;;;6.10;91.80;;;;;;4995670;28;20432;-70
2021/11/25 10:39:13;;;;;;;28.23;24.30;;;6.10;91.70;;;;;;4995282;28;20542;-69
2021/11/25 10:41:44;;;;;;;33.10;24.67;;;6.10;91.80;;;;;;4995450;28;20930;-69
2021/11/25 10:44:18;;;;;;;32.23;24.83;;;6.10;91.90;;;;;;4995401;28;20433;-69
2021/11/25 10:46:51;;;;;;;37.93;25.07;;;6.10;91.80;;;;;;4995356;28;20500;-70
2021/11/25 10:49:20;;;;;;;32.87;25.40;;;6.10;91.70;;;;;;4995095;28;20479;-70
2021/11/25 10:51:47;;;;;;;32.17;26.87;;;6.10;91.80;;;;;;4995195;28;20448;-70
2021/11/25 10:54:15;;;;;;;33.10;26.27;;;6.10;91.70;;;;;;4995092;28;20452;-71
2021/11/25 10:56:45;;;;;;;31.87;25.40;;;6.20;91.70;;;;;;4995055;28;20459;-71
2021/11/25 10:59:14;;;;;;;36.27;25.30;;;6.30;91.80;;;;;;4995006;28;20490;-70
2021/11/25 11:01:43;;;;;;;31.23;26.80;;;6.40;91.70;;;;;;4995249;28;20456;-70
2021/11/25 11:04:13;;;;;;;32.57;25.70;;;6.40;91.70;;;;;;4994896;28;20824;-70
2021/11/25 11:06:42;;;;;;;34.90;26.97;;;6.50;91.70;;;;;;4995193;28;20436;-70
2021/11/25 11:09:10;;;;;;;38.37;25.90;;;6.50;91.50;;;;;;4994885;28;20471;-70
2021/11/25 11:11:38;;;;;;;34.17;25.90;;;6.60;91.60;;;;;;4995012;28;20449;-70
2021/11/25 11:14:15;;;;;;;37.57;26.57;;;6.70;91.30;;;;;;4994740;28;20938;-70
2021/11/25 11:16:46;;;;;;;34.47;26.93;;;6.80;91.20;;;;;;4994689;28;20433;-70
2021/11/25 11:19:15;;;;;;;32.20;26.00;;;6.80;90.80;;;;;;4994504;28;20484;-70
2021/11/25 11:21:44;;;;;;;30.63;24.67;;;7.00;90.80;;;;;;4994597;28;20432;-70
2021/11/25 11:24:12;;;;;;;32.33;26.10;;;7.00;90.80;;;;;;4994684;28;20444;-70
2021/11/25 11:26:41;;;;;;;31.47;25.10;;;7.00;90.80;;;;;;4994777;28;20452;-70
2021/11/25 11:29:09;;;;;;;29.00;24.57;;;7.10;90.80;;;;;;4994760;28;20882;-69
2021/11/25 11:31:38;;;;;;;27.60;24.70;;;7.10;90.60;;;;;;4995222;28;20448;-70
2021/11/25 11:34:06;;;;;;;28.33;25.20;;;7.00;90.20;;;;;;4994868;28;20488;-70
2021/11/25 11:36:39;;;;;;;32.30;26.00;;;7.00;90.20;;;;;;4994319;28;21033;-70
2021/11/25 11:39:06;;;;;;;31.13;25.70;;;6.90;90.40;;;;;;4994423;28;20488;-70
2021/11/25 11:41:33;;;;;;;36.87;26.73;;;6.90;90.40;;;;;;4994074;28;20957;-71
2021/11/25 11:44:02;;;;;;;31.60;27.60;;;6.90;90.60;;;;;;4994295;28;20452;-70
2021/11/25 11:46:31;;;;;;;38.37;24.73;;;6.90;90.90;;;;;;4994314;28;20452;-71
2021/11/25 11:48:59;;;;;;;30.83;24.83;;;6.90;90.70;;;;;;4993894;28;20464;-70
2021/11/25 11:51:27;;;;;;;29.23;24.30;;;6.90;90.90;;;;;;4993970;28;20931;-70
2021/11/25 11:53:57;;;;;;;32.20;28.03;;;7.00;90.80;;;;;;4994332;28;20909;-70
2021/11/25 11:56:39;;;;;;;32.23;25.27;;;7.10;90.70;;;;;;4994864;28;20464;-71
2021/11/25 11:59:08;;;;;;;27.60;24.40;;;7.30;90.60;;;;;;4992056;28;20491;-70
2021/11/25 12:01:36;;;;;;;32.93;26.87;;;7.50;90.50;;;;;;4993934;28;20452;-71
2021/11/25 12:04:14;;;;;;;34.37;26.37;;;7.70;90.40;;;;;;4994016;28;20460;-71
2021/11/25 12:06:43;;;;;;;28.93;25.77;;;7.80;90.10;;;;;;4993947;28;20914;-73
2021/11/25 12:09:34;;;;;;;34.03;24.07;;;7.90;90.10;;;;;;4994097;28;20920;-70
2021/11/25 12:12:13;;;;;;;30.43;25.63;;;7.90;88.10;;;;;;4994551;28;20467;-70
2021/11/25 12:14:49;;;;;;;30.57;25.97;;;7.90;88.10;;;;;;4994270;28;20441;-70
2021/11/25 12:17:25;;;;;;;29.93;24.27;;;7.80;87.20;;;;;;4993954;28;20443;-70
2021/11/25 12:19:51;;;;;;;30.63;24.87;;;7.70;87.10;;;;;;4993669;28;20496;-70
2021/11/25 12:22:20;;;;;;;28.43;25.33;;;7.60;87.50;;;;;;4994012;28;20448;-70
2021/11/25 12:24:50;;;;;;;30.80;25.93;;;7.40;87.40;;;;;;4994082;28;20444;-70
2021/11/25 12:27:31;;;;;;;29.30;25.47;;;7.40;87.90;;;;;;4993916;28;20486;-70
2021/11/25 12:30:09;;;;;;;31.77;26.20;;;7.40;88.50;;;;;;4994497;28;20472;-67
2021/11/25 12:32:52;;;;;;;32.60;26.33;;;7.20;89.00;;;;;;4994345;28;20436;-71
2021/11/25 12:35:41;;;;;;;28.43;25.27;;;7.20;89.00;;;;;;4993624;28;20439;-70
2021/11/25 12:38:11;;;;;;;33.33;27.63;;;7.10;88.70;;;;;;4993907;28;20546;-70
2021/11/25 12:40:52;;;;;;;35.90;29.17;;;7.00;89.70;;;;;;4994881;28;20440;-71
2021/11/25 12:43:20;;;;;;;42.43;29.53;;;7.00;90.10;;;;;;4993702;28;20437;-71
2021/11/25 12:45:49;;;;;;;35.67;30.07;;;7.10;90.30;;;;;;4993675;28;20456;-71
2021/11/25 12:48:31;;;;;;;32.23;28.30;;;7.00;90.10;;;;;;4996782;28;20540;-70